createdAt,value
2023-05-02T00:00:53.420Z,19.40
2023-05-02T00:02:55.233Z,18.05
2023-05-02T00:04:56.735Z,17.15
2023-05-02T00:06:58.235Z,21.65
2023-05-02T00:08:59.794Z,21.70
2023-05-02T00:11:01.233Z,19.15
2023-05-02T00:13:02.716Z,21.17
2023-05-02T00:15:04.978Z,21.67
2023-05-02T00:17:06.445Z,22.77
2023-05-02T00:19:08.032Z,21.40
2023-05-02T00:21:09.991Z,20.65
2023-05-02T00:23:13.146Z,23.15
2023-05-02T00:25:16.436Z,24.50
2023-05-02T00:27:19.170Z,22.98
2023-05-02T00:29:20.888Z,22.30
2023-05-02T00:31:22.332Z,25.33
2023-05-02T00:33:23.777Z,23.10
2023-05-02T00:35:25.269Z,24.70
2023-05-02T00:37:28.504Z,27.15
2023-05-02T00:39:29.957Z,25.52
2023-05-02T00:41:31.359Z,24.88
2023-05-02T00:43:32.908Z,24.80
2023-05-02T00:45:34.467Z,23.27
2023-05-02T00:47:36.108Z,23.95
2023-05-02T00:49:37.634Z,24.42
2023-05-02T00:51:40.190Z,28.08
2023-05-02T00:53:41.755Z,25.27
2023-05-02T00:55:43.725Z,26.52
2023-05-02T00:57:45.155Z,25.13
2023-05-02T00:59:47.340Z,26.75
2023-05-02T01:02:06.014Z,24.88
2023-05-02T01:04:22.757Z,24.67
2023-05-02T01:06:42.318Z,26.90
2023-05-02T01:09:10.872Z,25.13
2023-05-02T01:11:17.357Z,25.92
2023-05-02T01:13:26.228Z,24.33
2023-05-02T01:15:28.361Z,26.27
2023-05-02T01:17:32.899Z,26.63
2023-05-02T01:19:37.757Z,28.73
2023-05-02T01:21:40.353Z,28.95
2023-05-02T01:23:53.468Z,28.77
2023-05-02T01:28:14.223Z,28.42
2023-05-02T01:30:23.588Z,27.02
2023-05-02T01:32:27.948Z,30.75
2023-05-02T01:34:32.022Z,34.72
2023-05-02T01:36:36.163Z,29.60
2023-05-02T01:38:39.953Z,34.88
2023-05-02T01:40:45.481Z,31.25
2023-05-02T01:42:50.270Z,35.05
2023-05-02T01:44:55.051Z,33.83
2023-05-02T01:46:58.000Z,33.67
2023-05-02T01:49:02.605Z,34.30
2023-05-02T01:51:07.343Z,34.33
2023-05-02T01:53:11.379Z,30.05
2023-05-02T01:55:15.255Z,34.35
2023-05-02T01:57:18.344Z,34.97
2023-05-02T01:59:22.589Z,32.88
2023-05-02T02:01:27.507Z,31.90
2023-05-02T02:03:30.972Z,33.75
2023-05-02T02:05:34.872Z,36.17
2023-05-02T02:07:36.533Z,32.88
2023-05-02T02:09:38.018Z,32.67
2023-05-02T02:11:47.695Z,34.33
2023-05-02T02:13:52.926Z,34.45
2023-05-02T02:15:59.712Z,33.03
2023-05-02T02:20:06.769Z,32.70
2023-05-02T02:22:08.905Z,34.33
2023-05-02T02:24:11.653Z,36.65
2023-05-02T02:26:14.340Z,36.08
2023-05-02T02:28:16.010Z,36.33
2023-05-02T02:30:17.678Z,38.38
2023-05-02T02:32:19.137Z,37.03
2023-05-02T02:34:21.282Z,41.33
2023-05-02T02:36:49.335Z,38.78
2023-05-02T02:39:00.784Z,36.63
2023-05-02T02:41:25.259Z,36.65
2023-05-02T02:43:32.345Z,37.65
2023-05-02T02:45:51.432Z,36.97
2023-05-02T02:48:19.712Z,35.97
2023-05-02T02:50:38.267Z,37.10
2023-05-02T02:52:55.562Z,35.05
2023-05-02T02:55:00.704Z,39.10
2023-05-02T02:57:09.152Z,38.45
2023-05-02T02:59:16.789Z,37.80
2023-05-02T03:01:21.839Z,40.95
2023-05-02T03:03:28.982Z,38.35
2023-05-02T03:05:32.848Z,38.20
2023-05-02T03:07:34.516Z,36.60
2023-05-02T03:09:45.879Z,37.88
2023-05-02T03:11:47.299Z,37.83
2023-05-02T03:13:48.861Z,33.70
2023-05-02T03:15:53.916Z,34.60
2023-05-02T03:17:55.492Z,33.70
2023-05-02T03:19:57.520Z,37.22
2023-05-02T03:21:59.074Z,33.88
2023-05-02T03:24:01.393Z,37.83
2023-05-02T03:26:02.953Z,37.70
2023-05-02T03:28:04.567Z,33.58
2023-05-02T03:30:06.714Z,35.33
2023-05-02T03:32:08.408Z,36.03
2023-05-02T03:34:09.908Z,33.40
2023-05-02T03:36:11.369Z,33.25
2023-05-02T03:38:13.507Z,32.05
2023-05-02T03:40:15.069Z,32.53
2023-05-02T03:42:16.491Z,30.27
2023-05-02T03:44:17.907Z,31.02
2023-05-02T03:46:19.407Z,33.20
2023-05-02T03:48:21.040Z,32.80
2023-05-02T03:50:22.995Z,31.88
2023-05-02T03:52:24.846Z,29.83
2023-05-02T03:54:26.417Z,30.52
2023-05-02T03:56:27.962Z,27.05
2023-05-02T03:58:29.340Z,32.38
2023-05-02T04:00:31.895Z,26.92
2023-05-02T04:02:33.357Z,27.35
2023-05-02T04:04:35.087Z,27.13
2023-05-02T04:06:36.654Z,28.52
2023-05-02T04:08:38.374Z,28.52
2023-05-02T04:10:39.779Z,25.25
2023-05-02T04:12:41.150Z,25.77
2023-05-02T04:14:42.613Z,26.17
2023-05-02T04:16:50.906Z,25.75
2023-05-02T04:18:52.389Z,24.33
2023-05-02T04:20:53.775Z,24.80
2023-05-02T04:22:55.226Z,27.45
2023-05-02T04:24:56.710Z,22.35
2023-05-02T04:26:58.122Z,22.90
2023-05-02T04:28:59.505Z,21.30
2023-05-02T04:31:01.072Z,21.73
2023-05-02T04:33:02.564Z,22.60
2023-05-02T04:35:04.542Z,24.48
2023-05-02T04:37:06.319Z,24.45
2023-05-02T04:39:07.898Z,24.55
2023-05-02T04:41:09.965Z,23.08
2023-05-02T04:43:11.451Z,23.52
2023-05-02T04:45:12.852Z,23.80
2023-05-02T04:47:14.234Z,24.38
2023-05-02T04:49:15.614Z,19.48
2023-05-02T04:51:17.322Z,21.98
2023-05-02T04:53:18.831Z,22.77
2023-05-02T04:55:20.377Z,21.98
2023-05-02T04:57:23.303Z,24.13
2023-05-02T04:59:24.937Z,24.02
2023-05-02T05:01:29.027Z,22.90
2023-05-02T05:03:30.841Z,21.20
2023-05-02T05:05:32.940Z,24.65
2023-05-02T05:07:34.403Z,21.88
2023-05-02T05:09:35.886Z,19.80
2023-05-02T05:11:38.573Z,20.27
2023-05-02T05:13:39.973Z,22.05
2023-05-02T05:15:41.582Z,22.15
2023-05-02T05:17:43.189Z,20.23
2023-05-02T05:19:44.597Z,21.20
2023-05-02T05:21:46.017Z,18.05
2023-05-02T05:23:47.650Z,21.38
2023-05-02T05:25:49.177Z,19.13
2023-05-02T05:27:52.133Z,21.92
2023-05-02T05:29:53.519Z,23.45
2023-05-02T05:31:54.985Z,20.88
2023-05-02T05:33:56.458Z,22.75
2023-05-02T05:36:03.954Z,20.48
2023-05-02T05:38:05.346Z,22.30
2023-05-02T05:40:08.544Z,22.52
2023-05-02T05:42:09.961Z,23.15
2023-05-02T05:44:11.473Z,20.15
2023-05-02T05:46:12.859Z,19.67
2023-05-02T05:48:14.299Z,21.35
2023-05-02T05:50:21.643Z,20.63
2023-05-02T05:52:23.225Z,19.90
2023-05-02T05:54:25.278Z,20.20
2023-05-02T05:56:26.997Z,23.75
2023-05-02T05:58:28.398Z,20.63
2023-05-02T06:00:30.102Z,18.30
2023-05-02T06:02:31.631Z,15.98
2023-05-02T06:04:33.099Z,16.88
2023-05-02T06:06:34.775Z,15.32
2023-05-02T06:08:36.336Z,12.32
2023-05-02T06:10:37.740Z,10.55
2023-05-02T06:12:39.209Z,10.85
2023-05-02T06:14:40.927Z,10.95
2023-05-02T06:16:42.732Z,9.73
2023-05-02T06:18:44.827Z,8.90
2023-05-02T06:20:46.204Z,10.27
2023-05-02T06:22:47.604Z,10.27
2023-05-02T06:24:48.974Z,8.13
2023-05-02T06:26:51.710Z,5.88
2023-05-02T06:28:54.967Z,8.00
2023-05-02T06:31:05.997Z,9.70
2023-05-02T06:33:07.574Z,8.02
2023-05-02T06:35:10.079Z,8.23
2023-05-02T06:37:11.745Z,7.38
2023-05-02T06:39:13.186Z,8.48
2023-05-02T06:41:17.876Z,9.07
2023-05-02T06:43:19.747Z,7.40
2023-05-02T06:45:21.131Z,9.55
2023-05-02T06:47:24.317Z,9.60
2023-05-02T06:49:26.704Z,9.02
2023-05-02T06:51:28.165Z,7.45
2023-05-02T06:53:31.131Z,7.18
2023-05-02T06:55:34.353Z,8.10
2023-05-02T06:57:35.831Z,7.68
2023-05-02T06:59:37.607Z,6.82
2023-05-02T07:01:39.036Z,8.50
2023-05-02T07:03:40.700Z,7.18
2023-05-02T07:05:42.238Z,5.97
2023-05-02T07:07:44.190Z,6.68
2023-05-02T07:09:45.631Z,9.32
2023-05-02T07:11:47.157Z,7.20
2023-05-02T07:13:48.628Z,7.45
2023-05-02T07:15:50.176Z,7.32
2023-05-02T07:17:51.597Z,6.72
2023-05-02T07:19:53.126Z,7.53
2023-05-02T07:21:54.499Z,6.30
2023-05-02T07:23:57.534Z,7.68
2023-05-02T07:25:58.936Z,6.43
2023-05-02T07:28:00.341Z,7.82
2023-05-02T07:30:02.346Z,6.75
2023-05-02T07:32:04.670Z,12.90
2023-05-02T07:34:06.264Z,8.82
2023-05-02T07:36:07.722Z,5.85
2023-05-02T07:38:09.157Z,6.03
2023-05-02T07:40:10.662Z,5.88
2023-05-02T07:42:12.046Z,8.30
2023-05-02T07:44:13.484Z,8.20
2023-05-02T07:46:15.124Z,7.70
2023-05-02T07:48:16.668Z,5.80
2023-05-02T07:50:18.186Z,7.38
2023-05-02T07:52:20.735Z,7.55
2023-05-02T07:54:22.424Z,6.80
2023-05-02T07:56:24.818Z,4.97
2023-05-02T07:58:26.343Z,5.95
2023-05-02T08:00:27.934Z,7.10
2023-05-02T08:02:29.810Z,9.40
2023-05-02T08:04:31.317Z,11.52
2023-05-02T08:06:33.256Z,6.68
2023-05-02T08:08:37.551Z,4.45
2023-05-02T08:10:38.976Z,6.03
2023-05-02T08:12:41.733Z,10.35
2023-05-02T08:14:43.190Z,6.72
2023-05-02T08:16:46.182Z,5.05
2023-05-02T08:18:48.239Z,3.78
2023-05-02T08:20:50.715Z,3.47
2023-05-02T08:22:52.151Z,2.50
2023-05-02T08:24:53.570Z,4.15
2023-05-02T08:26:54.980Z,3.65
2023-05-02T08:28:56.413Z,4.28
2023-05-02T08:30:57.865Z,5.07
2023-05-02T08:32:59.318Z,4.50
2023-05-02T08:35:00.873Z,4.65
2023-05-02T08:37:02.417Z,4.22
2023-05-02T08:39:04.891Z,4.07
2023-05-02T08:41:14.288Z,6.30
2023-05-02T08:43:16.907Z,7.18
2023-05-02T08:45:19.979Z,5.50
2023-05-02T08:47:22.350Z,7.05
2023-05-02T08:49:25.610Z,8.25
2023-05-02T08:51:29.004Z,6.60
2023-05-02T08:53:34.293Z,7.60
2023-05-02T08:55:39.944Z,6.75
2023-05-02T08:57:43.655Z,8.63
2023-05-02T08:59:45.221Z,6.22
2023-05-02T09:01:50.129Z,6.70
2023-05-02T09:03:52.333Z,8.40
2023-05-02T09:06:02.781Z,7.50
2023-05-02T09:08:04.310Z,7.82
2023-05-02T09:10:07.734Z,8.68
2023-05-02T09:12:09.145Z,7.40
2023-05-02T09:14:17.521Z,11.88
2023-05-02T09:16:25.330Z,8.27
2023-05-02T09:18:32.318Z,10.93
2023-05-02T09:22:52.836Z,11.15
2023-05-02T09:24:55.474Z,10.15
2023-05-02T09:27:04.940Z,11.30
2023-05-02T09:29:06.635Z,12.40
2023-05-02T09:31:12.624Z,14.65
2023-05-02T09:33:26.883Z,12.98
2023-05-02T09:35:28.376Z,14.68
2023-05-02T09:37:35.830Z,8.50
2023-05-02T09:39:37.401Z,10.90
2023-05-02T09:41:42.876Z,11.90
2023-05-02T09:43:44.521Z,10.52
2023-05-02T09:46:03.586Z,7.75
2023-05-02T09:48:05.326Z,7.18
2023-05-02T09:50:09.188Z,9.23
2023-05-02T09:52:12.906Z,6.93
2023-05-02T09:54:15.271Z,8.60
2023-05-02T09:56:17.518Z,9.13
2023-05-02T09:58:23.660Z,9.50
2023-05-02T10:00:44.666Z,6.68
2023-05-02T10:02:50.275Z,11.85
2023-05-02T10:04:53.692Z,8.23
2023-05-02T10:06:55.592Z,7.38
2023-05-02T10:08:57.517Z,8.25
2023-05-02T10:11:00.011Z,7.50
2023-05-02T10:13:03.167Z,7.95
2023-05-02T10:15:05.874Z,10.40
2023-05-02T10:17:19.309Z,9.82
2023-05-02T10:19:27.086Z,9.82
2023-05-02T10:21:28.682Z,11.68
2023-05-02T10:23:30.420Z,9.30
2023-05-02T10:25:33.210Z,9.90
2023-05-02T10:27:34.666Z,10.45
2023-05-02T10:29:37.147Z,10.70
2023-05-02T10:31:41.927Z,10.80
2023-05-02T10:33:46.799Z,11.85
2023-05-02T10:35:48.449Z,10.95
2023-05-02T10:37:50.645Z,8.43
2023-05-02T10:39:52.224Z,6.70
2023-05-02T10:41:56.375Z,10.38
2023-05-02T10:43:58.712Z,9.93
2023-05-02T10:46:00.244Z,10.32
2023-05-02T10:48:27.510Z,11.35
2023-05-02T10:50:43.520Z,9.05
2023-05-02T10:52:45.132Z,9.93
2023-05-02T10:54:46.621Z,8.88
2023-05-02T10:57:03.477Z,11.32
2023-05-02T10:59:27.619Z,10.65
2023-05-02T11:01:29.293Z,11.57
2023-05-02T11:03:57.361Z,12.57
2023-05-02T11:06:09.551Z,12.25
2023-05-02T11:08:22.099Z,11.82
2023-05-02T11:10:26.362Z,13.32
2023-05-02T11:12:48.996Z,11.38
2023-05-02T11:14:50.699Z,12.48
2023-05-02T11:16:58.792Z,12.70
2023-05-02T11:19:01.411Z,15.07
2023-05-02T11:21:28.612Z,10.18
2023-05-02T11:23:30.374Z,11.15
2023-05-02T11:25:39.153Z,11.00
2023-05-02T11:27:43.355Z,18.13
2023-05-02T11:29:52.438Z,13.40
2023-05-02T11:31:54.804Z,12.82
2023-05-02T11:34:05.078Z,12.25
2023-05-02T11:36:06.637Z,8.90
2023-05-02T11:38:13.126Z,10.95
2023-05-02T11:40:15.240Z,10.35
2023-05-02T11:42:30.537Z,10.10
2023-05-02T11:44:31.976Z,17.02
2023-05-02T11:46:36.464Z,14.95
2023-05-02T11:48:38.350Z,12.60
2023-05-02T11:50:51.409Z,11.80
2023-05-02T11:52:52.893Z,11.43
2023-05-02T11:54:58.159Z,11.32
2023-05-02T11:57:01.828Z,8.00
2023-05-02T11:59:03.981Z,12.70
2023-05-02T12:01:16.071Z,12.95
2023-05-02T12:03:32.123Z,12.65
2023-05-02T12:05:33.985Z,9.18
2023-05-02T12:07:35.889Z,11.48
2023-05-02T12:09:50.444Z,12.57
2023-05-02T12:11:53.461Z,6.75
2023-05-02T12:13:54.933Z,12.27
2023-05-02T12:15:57.146Z,11.32
2023-05-02T12:17:59.157Z,11.23
2023-05-02T12:20:03.504Z,9.10
2023-05-02T12:22:05.815Z,8.85
2023-05-02T12:24:07.333Z,9.98
2023-05-02T12:26:25.105Z,13.05
2023-05-02T12:28:26.789Z,11.50
2023-05-02T12:30:29.533Z,7.95
2023-05-02T12:32:33.341Z,12.10
2023-05-02T12:34:36.564Z,7.05
2023-05-02T12:36:44.261Z,8.88
2023-05-02T12:38:53.750Z,5.80
2023-05-02T12:40:58.704Z,9.88
2023-05-02T12:43:03.861Z,8.40
2023-05-02T12:45:16.237Z,11.30
2023-05-02T12:47:19.472Z,7.70
2023-05-02T12:49:20.927Z,11.73
2023-05-02T12:51:26.867Z,6.53
2023-05-02T12:53:40.152Z,8.32
2023-05-02T12:55:41.616Z,10.35
2023-05-02T12:57:43.457Z,11.68
2023-05-02T12:59:44.910Z,5.55
2023-05-02T13:01:46.342Z,8.45
2023-05-02T13:03:50.987Z,7.05
2023-05-02T13:05:55.582Z,6.40
2023-05-02T13:07:58.471Z,8.70
2023-05-02T13:10:00.108Z,9.60
2023-05-02T13:12:03.462Z,8.57
2023-05-02T13:14:05.937Z,7.07
2023-05-02T13:16:08.117Z,10.60
2023-05-02T13:18:09.792Z,5.97
2023-05-02T13:20:12.096Z,8.05
2023-05-02T13:22:13.517Z,12.52
2023-05-02T13:24:17.340Z,4.60
2023-05-02T13:26:18.856Z,7.38
2023-05-02T13:28:20.378Z,29.45
2023-05-02T13:30:21.793Z,9.05
2023-05-02T13:32:23.227Z,7.35
2023-05-02T13:34:24.731Z,5.78
2023-05-02T13:36:26.277Z,5.00
2023-05-02T13:38:27.701Z,8.63
2023-05-02T13:40:29.234Z,12.27
2023-05-02T13:42:30.721Z,9.18
2023-05-02T13:44:32.516Z,10.27
2023-05-02T13:46:36.631Z,7.60
2023-05-02T13:48:38.483Z,7.25
2023-05-02T13:50:39.892Z,8.48
2023-05-02T13:52:41.579Z,4.97
2023-05-02T13:54:43.027Z,9.98
2023-05-02T13:56:44.454Z,8.07
2023-05-02T13:58:45.824Z,6.43
2023-05-02T14:00:47.331Z,8.30
2023-05-02T14:02:48.822Z,4.07
2023-05-02T14:04:50.443Z,7.03
2023-05-02T14:06:51.906Z,6.35
2023-05-02T14:08:53.380Z,7.85
2023-05-02T14:10:54.804Z,5.10
2023-05-02T14:12:56.262Z,7.22
2023-05-02T14:14:57.702Z,35.95
2023-05-02T14:16:59.797Z,84.38
2023-05-02T14:19:01.201Z,7.65
2023-05-02T14:21:04.014Z,6.18
2023-05-02T14:23:07.440Z,8.35
2023-05-02T14:25:09.288Z,6.97
2023-05-02T14:27:18.089Z,5.53
2023-05-02T14:29:22.777Z,7.32
2023-05-02T14:31:24.418Z,9.32
2023-05-02T14:33:26.721Z,5.90
2023-05-02T14:35:28.244Z,6.40
2023-05-02T14:37:29.736Z,6.97
2023-05-02T14:39:31.153Z,8.45
2023-05-02T14:41:32.582Z,9.60
2023-05-02T14:43:33.976Z,8.07
2023-05-02T14:45:35.463Z,6.32
2023-05-02T14:47:36.910Z,8.18
2023-05-02T14:49:38.347Z,11.00
2023-05-02T14:51:40.186Z,8.27
2023-05-02T14:53:41.619Z,27.98
2023-05-02T14:55:43.245Z,197.18
2023-05-02T14:57:44.680Z,8.95
2023-05-02T14:59:46.138Z,10.70
2023-05-02T15:01:47.657Z,9.93
2023-05-02T15:04:05.279Z,10.02
2023-05-02T15:06:08.876Z,9.35
2023-05-02T15:08:10.504Z,8.05
2023-05-02T15:10:11.928Z,10.55
2023-05-02T15:12:13.341Z,9.63
2023-05-02T15:14:14.745Z,7.03
2023-05-02T15:16:16.445Z,9.82
2023-05-02T15:18:17.920Z,11.57
2023-05-02T15:20:19.704Z,9.30
2023-05-02T15:22:22.245Z,8.75
2023-05-02T15:24:26.961Z,11.30
2023-05-02T15:26:28.726Z,9.68
2023-05-02T15:28:31.006Z,9.43
2023-05-02T15:30:32.452Z,8.98
2023-05-02T15:32:34.026Z,6.05
2023-05-02T15:34:35.494Z,9.80
2023-05-02T15:36:37.462Z,9.88
2023-05-02T15:38:42.812Z,9.48
2023-05-02T15:40:44.231Z,8.93
2023-05-02T15:42:45.849Z,14.50
2023-05-02T15:44:47.229Z,9.20
2023-05-02T15:46:49.365Z,8.73
2023-05-02T15:48:51.092Z,10.77
2023-05-02T15:50:52.656Z,10.30
2023-05-02T15:52:54.032Z,9.10
2023-05-02T15:54:56.061Z,8.20
2023-05-02T15:56:57.527Z,6.97
2023-05-02T15:58:58.943Z,8.88
2023-05-02T16:01:00.347Z,10.10
2023-05-02T16:03:03.805Z,8.15
2023-05-02T16:05:06.011Z,7.35
2023-05-02T16:07:07.492Z,8.95
2023-05-02T16:09:10.041Z,9.98
2023-05-02T16:11:11.486Z,10.02
2023-05-02T16:13:12.973Z,12.15
2023-05-02T16:15:14.474Z,7.70
2023-05-02T16:17:16.082Z,9.80
2023-05-02T16:19:17.642Z,11.30
2023-05-02T16:21:19.082Z,12.02
2023-05-02T16:23:21.500Z,11.40
2023-05-02T16:25:22.962Z,7.25
2023-05-02T16:27:24.842Z,9.85
2023-05-02T16:29:26.297Z,8.15
2023-05-02T16:31:28.126Z,8.38
2023-05-02T16:33:29.815Z,9.60
2023-05-02T16:35:31.214Z,11.35
2023-05-02T16:37:34.789Z,9.35
2023-05-02T16:39:36.222Z,9.52
2023-05-02T16:41:37.652Z,8.50
2023-05-02T16:43:39.294Z,14.02
2023-05-02T16:45:40.809Z,10.40
2023-05-02T16:47:43.027Z,10.23
2023-05-02T16:49:45.720Z,7.88
2023-05-02T16:51:51.262Z,8.98
2023-05-02T16:53:52.658Z,8.85
2023-05-02T16:55:54.639Z,10.93
2023-05-02T16:57:56.418Z,11.30
2023-05-02T16:59:58.062Z,9.90
2023-05-02T17:01:59.485Z,11.13
2023-05-02T17:04:01.038Z,8.50
2023-05-02T17:06:02.827Z,9.80
2023-05-02T17:08:04.416Z,6.63
2023-05-02T17:10:07.397Z,7.22
2023-05-02T17:12:12.499Z,7.55
2023-05-02T17:14:14.250Z,7.55
2023-05-02T17:16:17.912Z,10.68
2023-05-02T17:18:19.480Z,7.55
2023-05-02T17:20:21.516Z,10.32
2023-05-02T17:22:23.312Z,7.75
2023-05-02T17:24:25.055Z,10.05
2023-05-02T17:26:26.493Z,7.18
2023-05-02T17:28:28.963Z,7.35
2023-05-02T17:30:30.529Z,7.78
2023-05-02T17:32:33.647Z,10.20
2023-05-02T17:34:36.591Z,6.97
2023-05-02T17:36:41.744Z,6.80
2023-05-02T17:38:43.812Z,19.83
2023-05-02T17:40:45.484Z,9.10
2023-05-02T17:42:47.224Z,7.07
2023-05-02T17:44:48.697Z,10.80
2023-05-02T17:46:50.126Z,14.63
2023-05-02T17:48:51.956Z,12.43
2023-05-02T17:50:55.387Z,11.70
2023-05-02T17:52:57.489Z,20.23
2023-05-02T17:54:59.018Z,15.48
2023-05-02T17:57:00.421Z,14.95
2023-05-02T17:59:01.780Z,9.52
2023-05-02T18:01:08.029Z,9.38
2023-05-02T18:03:09.624Z,8.40
2023-05-02T18:05:11.037Z,7.45
2023-05-02T18:07:12.411Z,8.05
2023-05-02T18:09:13.790Z,10.30
2023-05-02T18:11:19.739Z,9.05
2023-05-02T18:13:21.176Z,7.63
2023-05-02T18:15:22.753Z,12.05
2023-05-02T18:17:24.506Z,11.63
2023-05-02T18:19:25.987Z,6.47
2023-05-02T18:21:28.155Z,8.77
2023-05-02T18:23:29.623Z,8.15
2023-05-02T18:25:33.954Z,7.90
2023-05-02T18:27:35.407Z,10.35
2023-05-02T18:29:36.948Z,6.50
2023-05-02T18:31:40.287Z,8.07
2023-05-02T18:33:42.064Z,9.85
2023-05-02T18:35:48.215Z,7.65
2023-05-02T18:37:49.607Z,6.75
2023-05-02T18:39:51.286Z,9.82
2023-05-02T18:41:52.643Z,6.40
2023-05-02T18:43:54.563Z,6.85
2023-05-02T18:45:55.980Z,10.45
2023-05-02T18:47:57.821Z,9.73
2023-05-02T18:49:59.823Z,13.25
2023-05-02T18:52:01.327Z,9.27
2023-05-02T18:54:02.742Z,8.45
2023-05-02T18:56:11.829Z,9.52
2023-05-02T18:58:13.191Z,8.90
2023-05-02T19:00:15.206Z,6.95
2023-05-02T19:02:16.663Z,8.75
2023-05-02T19:04:18.477Z,4.85
2023-05-02T19:06:20.284Z,8.93
2023-05-02T19:08:22.617Z,7.88
2023-05-02T19:10:25.026Z,7.80
2023-05-02T19:12:26.565Z,7.90
2023-05-02T19:14:28.021Z,7.18
2023-05-02T19:16:29.628Z,5.88
2023-05-02T19:18:31.251Z,13.70
2023-05-02T19:20:32.674Z,8.40
2023-05-02T19:22:34.658Z,7.57
2023-05-02T19:24:36.226Z,8.63
2023-05-02T19:26:37.644Z,7.80
2023-05-02T19:28:39.405Z,7.75
2023-05-02T19:30:42.443Z,7.40
2023-05-02T19:32:43.886Z,6.90
2023-05-02T19:34:45.393Z,10.32
2023-05-02T19:36:46.909Z,8.98
2023-05-02T19:38:53.932Z,7.53
2023-05-02T19:40:55.671Z,6.65
2023-05-02T19:42:57.086Z,9.07
2023-05-02T19:44:58.474Z,4.75
2023-05-02T19:46:59.960Z,8.55
2023-05-02T19:49:01.337Z,6.50
2023-05-02T19:51:04.187Z,9.13
2023-05-02T19:53:05.698Z,4.43
2023-05-02T19:55:10.348Z,9.63
2023-05-02T19:57:11.779Z,6.80
2023-05-02T19:59:13.154Z,8.52
2023-05-02T20:01:14.851Z,8.82
2023-05-02T20:03:16.712Z,8.13
2023-05-02T20:05:18.352Z,6.65
2023-05-02T20:07:19.857Z,5.15
2023-05-02T20:09:21.294Z,5.43
2023-05-02T20:11:22.769Z,9.60
2023-05-02T20:13:24.288Z,5.65
2023-05-02T20:15:25.740Z,6.50
2023-05-02T20:17:27.195Z,5.57
2023-05-02T20:19:29.334Z,7.40
2023-05-02T20:21:31.350Z,6.93
2023-05-02T20:23:32.764Z,6.45
2023-05-02T20:25:34.187Z,5.75
2023-05-02T20:27:35.660Z,4.13
2023-05-02T20:29:37.099Z,7.22
2023-05-02T20:31:39.996Z,4.75
2023-05-02T20:33:45.850Z,7.00
2023-05-02T20:35:54.908Z,5.28
2023-05-02T20:37:56.451Z,8.25
2023-05-02T20:39:58.061Z,6.13
2023-05-02T20:41:59.501Z,6.07
2023-05-02T20:44:02.637Z,4.35
2023-05-02T20:46:11.874Z,6.22
2023-05-02T20:48:19.196Z,7.13
2023-05-02T20:50:20.705Z,8.48
2023-05-02T20:52:22.974Z,5.97
2023-05-02T20:54:24.442Z,6.28
2023-05-02T20:56:26.185Z,7.88
2023-05-02T20:58:27.619Z,7.72
2023-05-02T21:00:29.055Z,7.07
2023-05-02T21:02:30.660Z,6.38
2023-05-02T21:04:32.178Z,4.35
2023-05-02T21:06:33.761Z,4.75
2023-05-02T21:08:35.493Z,5.80
2023-05-02T21:10:36.923Z,6.97
2023-05-02T21:12:38.619Z,9.07
2023-05-02T21:14:40.334Z,7.00
2023-05-02T21:16:41.730Z,5.88
2023-05-02T21:18:43.396Z,7.70
2023-05-02T21:20:48.095Z,7.82
2023-05-02T21:22:49.762Z,8.65
2023-05-02T21:24:51.263Z,5.85
2023-05-02T21:26:52.750Z,7.70
2023-05-02T21:28:54.156Z,6.93
2023-05-02T21:30:55.934Z,11.40
2023-05-02T21:32:57.404Z,5.13
2023-05-02T21:34:58.936Z,6.78
2023-05-02T21:37:00.950Z,6.18
2023-05-02T21:39:02.469Z,6.82
2023-05-02T21:41:05.200Z,6.25
2023-05-02T21:43:06.668Z,5.95
2023-05-02T21:45:08.655Z,7.40
2023-05-02T21:47:10.184Z,4.68
2023-05-02T21:49:11.701Z,6.68
2023-05-02T21:51:14.125Z,7.32
2023-05-02T21:53:15.785Z,6.00
2023-05-02T21:55:17.317Z,5.75
2023-05-02T21:57:21.399Z,4.43
2023-05-02T21:59:22.784Z,5.80
2023-05-02T22:01:24.451Z,6.22
2023-05-02T22:03:27.201Z,5.95
2023-05-02T22:05:28.630Z,4.60
2023-05-02T22:07:30.317Z,5.45
2023-05-02T22:09:33.533Z,6.18
2023-05-02T22:11:35.210Z,5.93
2023-05-02T22:13:36.924Z,5.57
2023-05-02T22:15:42.825Z,9.25
2023-05-02T22:17:46.140Z,6.95
2023-05-02T22:19:53.854Z,5.72
2023-05-02T22:21:56.899Z,8.07
2023-05-02T22:23:58.997Z,4.47
2023-05-02T22:26:00.459Z,4.82
2023-05-02T22:28:06.856Z,6.93
2023-05-02T22:30:09.889Z,4.38
2023-05-02T22:32:11.559Z,5.63
2023-05-02T22:34:13.053Z,4.90
2023-05-02T22:36:14.430Z,8.57
2023-05-02T22:38:19.253Z,8.18
2023-05-02T22:40:21.187Z,8.40
2023-05-02T22:42:23.582Z,7.93
2023-05-02T22:44:25.029Z,5.82
2023-05-02T22:46:26.765Z,5.25
2023-05-02T22:48:29.153Z,4.68
2023-05-02T22:50:30.606Z,4.13
2023-05-02T22:52:37.674Z,8.05
2023-05-02T22:54:39.172Z,8.38
2023-05-02T22:56:43.733Z,5.05
2023-05-02T22:58:45.172Z,7.10
2023-05-02T23:00:46.614Z,9.02
2023-05-02T23:02:48.133Z,10.60
2023-05-02T23:04:50.782Z,4.78
2023-05-02T23:06:52.373Z,5.75
2023-05-02T23:08:53.980Z,7.90
2023-05-02T23:10:55.924Z,7.57
2023-05-02T23:12:57.285Z,8.48
2023-05-02T23:14:58.689Z,5.53
2023-05-02T23:17:02.074Z,9.70
2023-05-02T23:19:03.486Z,4.68
2023-05-02T23:21:05.222Z,6.05
2023-05-02T23:23:06.610Z,5.35
2023-05-02T23:25:09.224Z,7.05
2023-05-02T23:27:10.764Z,5.97
2023-05-02T23:29:12.359Z,4.80
2023-05-02T23:31:13.914Z,6.78
2023-05-02T23:33:16.333Z,6.18
2023-05-02T23:35:18.011Z,5.97
2023-05-02T23:37:19.670Z,6.18
2023-05-02T23:39:21.316Z,5.93
2023-05-02T23:41:22.892Z,7.53
2023-05-02T23:43:24.444Z,5.95
2023-05-02T23:45:25.857Z,6.63
2023-05-02T23:47:27.413Z,5.05
2023-05-02T23:49:28.865Z,5.60
2023-05-02T23:51:31.848Z,7.95
2023-05-02T23:53:33.261Z,6.65
2023-05-02T23:55:36.230Z,7.47
2023-05-02T23:57:37.682Z,6.72
2023-05-02T23:59:39.095Z,4.60
